sensor_id;sensor_type;location;lat;lon;timestamp;temperature;humidity
18894;DHT22;9579;49.488;8.226;2023-01-10T06:04:41;8.50;99.90
18894;DHT22;9579;49.488;8.226;2023-01-10T06:07:28;8.50;99.90
18894;DHT22;9579;49.488;8.226;2023-01-10T06:10:17;8.40;99.90
18894;DHT22;9579;49.488;8.226;2023-01-10T06:13:04;8.50;99.90
18894;DHT22;9579;49.488;8.226;2023-01-10T06:15:51;8.50;99.90
18894;DHT22;9579;49.488;8.226;2023-01-10T06:18:38;8.50;99.90
18894;DHT22;9579;49.488;8.226;2023-01-10T06:21:26;8.40;99.90
18894;DHT22;9579;49.488;8.226;2023-01-10T06:24:13;8.40;99.90
18894;DHT22;9579;49.488;8.226;2023-01-10T06:27:00;8.40;99.90
18894;DHT22;9579;49.488;8.226;2023-01-10T06:29:47;8.60;99.90
18894;DHT22;9579;49.488;8.226;2023-01-10T06:32:35;8.40;99.90
18894;DHT22;9579;49.488;8.226;2023-01-10T06:35:27;8.40;99.90
18894;DHT22;9579;49.488;8.226;2023-01-10T06:38:15;8.40;99.90
18894;DHT22;9579;49.488;8.226;2023-01-10T06:41:03;8.40;99.90
18894;DHT22;9579;49.488;8.226;2023-01-10T06:43:58;8.50;99.90
18894;DHT22;9579;49.488;8.226;2023-01-10T06:46:46;8.50;99.90
18894;DHT22;9579;49.488;8.226;2023-01-10T06:49:33;8.40;99.90
18894;DHT22;9579;49.488;8.226;2023-01-10T06:52:20;8.40;99.90
18894;DHT22;9579;49.488;8.226;2023-01-10T06:55:09;8.30;99.90
18894;DHT22;9579;49.488;8.226;2023-01-10T06:57:57;8.30;99.90
18894;DHT22;9579;49.488;8.226;2023-01-10T07:00:45;8.30;99.90
18894;DHT22;9579;49.488;8.226;2023-01-10T07:03:32;8.30;99.90
18894;DHT22;9579;49.488;8.226;2023-01-10T07:06:19;8.40;99.90
18894;DHT22;9579;49.488;8.226;2023-01-10T07:09:06;8.30;99.90
18894;DHT22;9579;49.488;8.226;2023-01-10T07:11:55;8.20;99.90
18894;DHT22;9579;49.488;8.226;2023-01-10T07:14:42;8.20;99.90
18894;DHT22;9579;49.488;8.226;2023-01-10T07:17:29;8.30;99.90
18894;DHT22;9579;49.488;8.226;2023-01-10T07:20:16;8.40;99.90
18894;DHT22;9579;49.488;8.226;2023-01-10T07:23:05;8.40;99.90
18894;DHT22;9579;49.488;8.226;2023-01-10T07:25:52;8.30;99.90
18894;DHT22;9579;49.488;8.226;2023-01-10T07:28:40;8.30;99.90
18894;DHT22;9579;49.488;8.226;2023-01-10T07:31:29;8.30;99.90
18894;DHT22;9579;49.488;8.226;2023-01-10T07:34:16;8.40;99.90
18894;DHT22;9579;49.488;8.226;2023-01-10T07:37:03;8.40;99.90
18894;DHT22;9579;49.488;8.226;2023-01-10T07:39:50;8.40;99.90
18894;DHT22;9579;49.488;8.226;2023-01-10T07:42:37;8.50;99.90
18894;DHT22;9579;49.488;8.226;2023-01-10T07:45:25;8.50;99.90
18894;DHT22;9579;49.488;8.226;2023-01-10T07:48:13;8.50;99.90
18894;DHT22;9579;49.488;8.226;2023-01-10T07:51:01;8.50;99.90
18894;DHT22;9579;49.488;8.226;2023-01-10T07:53:48;8.60;99.90
18894;DHT22;9579;49.488;8.226;2023-01-10T07:56:35;8.60;99.90
18894;DHT22;9579;49.488;8.226;2023-01-10T07:59:22;8.60;99.90
18894;DHT22;9579;49.488;8.226;2023-01-10T08:02:10;8.60;99.90
18894;DHT22;9579;49.488;8.226;2023-01-10T08:04:57;8.50;99.90
18894;DHT22;9579;49.488;8.226;2023-01-10T08:07:44;8.60;99.90
18894;DHT22;9579;49.488;8.226;2023-01-10T08:10:32;8.60;99.90
18894;DHT22;9579;49.488;8.226;2023-01-10T08:13:19;8.50;99.90
18894;DHT22;9579;49.488;8.226;2023-01-10T08:16:07;8.60;99.90
18894;DHT22;9579;49.488;8.226;2023-01-10T08:18:55;8.70;99.90
18894;DHT22;9579;49.488;8.226;2023-01-10T08:21:42;8.60;99.90
18894;DHT22;9579;49.488;8.226;2023-01-10T08:24:29;8.70;99.90
18894;DHT22;9579;49.488;8.226;2023-01-10T08:27:16;8.80;99.90
18894;DHT22;9579;49.488;8.226;2023-01-10T08:30:04;8.80;99.90
18894;DHT22;9579;49.488;8.226;2023-01-10T08:32:51;8.90;99.90
18894;DHT22;9579;49.488;8.226;2023-01-10T08:35:42;9.00;99.90
18894;DHT22;9579;49.488;8.226;2023-01-10T08:38:29;9.00;99.90
18894;DHT22;9579;49.488;8.226;2023-01-10T08:41:16;8.90;99.90
18894;DHT22;9579;49.488;8.226;2023-01-10T08:44:03;9.00;99.90
18894;DHT22;9579;49.488;8.226;2023-01-10T08:46:50;9.10;99.90
18894;DHT22;9579;49.488;8.226;2023-01-10T08:49:37;9.10;99.90
18894;DHT22;9579;49.488;8.226;2023-01-10T08:52:25;9.00;99.90
18894;DHT22;9579;49.488;8.226;2023-01-10T08:55:12;9.00;99.90
18894;DHT22;9579;49.488;8.226;2023-01-10T08:58:00;9.10;99.90
18894;DHT22;9579;49.488;8.226;2023-01-10T09:00:47;9.00;99.90
18894;DHT22;9579;49.488;8.226;2023-01-10T09:03:34;9.00;99.90
18894;DHT22;9579;49.488;8.226;2023-01-10T09:06:21;9.00;99.90
18894;DHT22;9579;49.488;8.226;2023-01-10T09:09:10;9.00;99.90
18894;DHT22;9579;49.488;8.226;2023-01-10T09:11:57;9.00;99.90
18894;DHT22;9579;49.488;8.226;2023-01-10T09:14:44;9.00;99.90
18894;DHT22;9579;49.488;8.226;2023-01-10T09:17:31;9.00;99.90
18894;DHT22;9579;49.488;8.226;2023-01-10T09:20:18;9.00;99.90
18894;DHT22;9579;49.488;8.226;2023-01-10T09:23:06;9.00;99.90
18894;DHT22;9579;49.488;8.226;2023-01-10T09:25:55;8.90;99.90
18894;DHT22;9579;49.488;8.226;2023-01-10T09:28:42;9.00;99.90
18894;DHT22;9579;49.488;8.226;2023-01-10T09:31:29;9.00;99.90
18894;DHT22;9579;49.488;8.226;2023-01-10T09:34:16;9.10;99.90
18894;DHT22;9579;49.488;8.226;2023-01-10T09:37:03;9.20;99.90
18894;DHT22;9579;49.488;8.226;2023-01-10T09:39:50;9.20;99.90
18894;DHT22;9579;49.488;8.226;2023-01-10T09:42:50;9.20;99.90
18894;DHT22;9579;49.488;8.226;2023-01-10T09:45:49;9.30;99.90
18894;DHT22;9579;49.488;8.226;2023-01-10T09:48:42;9.30;99.90
18894;DHT22;9579;49.488;8.226;2023-01-10T09:51:38;9.30;99.90
18894;DHT22;9579;49.488;8.226;2023-01-10T09:54:28;9.30;99.90
18894;DHT22;9579;49.488;8.226;2023-01-10T09:57:18;9.30;99.90
18894;DHT22;9579;49.488;8.226;2023-01-10T10:00:13;9.30;99.90
18894;DHT22;9579;49.488;8.226;2023-01-10T10:03:04;9.30;99.90
18894;DHT22;9579;49.488;8.226;2023-01-10T10:05:57;9.30;99.90
18894;DHT22;9579;49.488;8.226;2023-01-10T10:08:45;9.30;99.90
18894;DHT22;9579;49.488;8.226;2023-01-10T10:11:43;9.40;99.90
18894;DHT22;9579;49.488;8.226;2023-01-10T10:14:43;9.60;99.90
18894;DHT22;9579;49.488;8.226;2023-01-10T10:17:42;9.60;99.90
18894;DHT22;9579;49.488;8.226;2023-01-10T10:20:38;9.60;99.90
18894;DHT22;9579;49.488;8.226;2023-01-10T10:23:48;9.70;99.90
18894;DHT22;9579;49.488;8.226;2023-01-10T10:26:43;9.80;99.90
18894;DHT22;9579;49.488;8.226;2023-01-10T10:29:54;9.90;99.90
18894;DHT22;9579;49.488;8.226;2023-01-10T10:33:08;10.20;99.90
18894;DHT22;9579;49.488;8.226;2023-01-10T10:36:01;10.30;99.90
18894;DHT22;9579;49.488;8.226;2023-01-10T10:38:50;10.50;99.90
18894;DHT22;9579;49.488;8.226;2023-01-10T10:41:42;10.60;99.90
18894;DHT22;9579;49.488;8.226;2023-01-10T10:44:35;10.70;99.90
18894;DHT22;9579;49.488;8.226;2023-01-10T10:47:27;10.80;99.90
18894;DHT22;9579;49.488;8.226;2023-01-10T10:50:24;10.60;99.90
18894;DHT22;9579;49.488;8.226;2023-01-10T10:53:14;10.50;99.90
18894;DHT22;9579;49.488;8.226;2023-01-10T10:56:05;10.40;99.90
18894;DHT22;9579;49.488;8.226;2023-01-10T10:58:55;10.50;99.90
18894;DHT22;9579;49.488;8.226;2023-01-10T11:01:44;10.40;99.90
18894;DHT22;9579;49.488;8.226;2023-01-10T11:04:33;10.40;99.90
18894;DHT22;9579;49.488;8.226;2023-01-10T11:07:23;10.40;99.90
18894;DHT22;9579;49.488;8.226;2023-01-10T11:10:15;10.60;99.90
18894;DHT22;9579;49.488;8.226;2023-01-10T11:13:22;10.70;99.90
18894;DHT22;9579;49.488;8.226;2023-01-10T11:16:23;10.70;99.90
18894;DHT22;9579;49.488;8.226;2023-01-10T11:19:17;10.80;99.90
18894;DHT22;9579;49.488;8.226;2023-01-10T11:22:05;11.10;99.90
18894;DHT22;9579;49.488;8.226;2023-01-10T11:24:57;11.10;99.80
18894;DHT22;9579;49.488;8.226;2023-01-10T11:27:47;11.10;99.90
18894;DHT22;9579;49.488;8.226;2023-01-10T11:30:35;11.10;99.90
18894;DHT22;9579;49.488;8.226;2023-01-10T11:33:27;11.30;99.90
18894;DHT22;9579;49.488;8.226;2023-01-10T11:36:15;11.40;99.50
18894;DHT22;9579;49.488;8.226;2023-01-10T11:39:03;11.30;99.90
18894;DHT22;9579;49.488;8.226;2023-01-10T11:41:52;11.30;99.80
18894;DHT22;9579;49.488;8.226;2023-01-10T11:44:40;11.20;99.90
18894;DHT22;9579;49.488;8.226;2023-01-10T11:47:27;11.20;99.70
18894;DHT22;9579;49.488;8.226;2023-01-10T11:50:19;11.10;99.90
18894;DHT22;9579;49.488;8.226;2023-01-10T11:53:35;11.10;99.90
18894;DHT22;9579;49.488;8.226;2023-01-10T11:56:25;10.80;99.90
18894;DHT22;9579;49.488;8.226;2023-01-10T11:59:16;10.80;99.90
18894;DHT22;9579;49.488;8.226;2023-01-10T12:02:11;10.60;99.90
18894;DHT22;9579;49.488;8.226;2023-01-10T12:05:02;10.60;99.90
18894;DHT22;9579;49.488;8.226;2023-01-10T14:10:20;10.10;99.90
18894;DHT22;9579;49.488;8.226;2023-01-10T14:13:15;10.20;99.90
18894;DHT22;9579;49.488;8.226;2023-01-10T14:16:26;10.40;99.90
18894;DHT22;9579;49.488;8.226;2023-01-10T14:34:47;10.40;99.90
18894;DHT22;9579;49.488;8.226;2023-01-10T14:37:39;10.70;99.90
18894;DHT22;9579;49.488;8.226;2023-01-10T14:40:33;10.30;99.90
18894;DHT22;9579;49.488;8.226;2023-01-10T14:43:25;11.20;99.90
18894;DHT22;9579;49.488;8.226;2023-01-10T14:46:37;10.30;99.90
18894;DHT22;9579;49.488;8.226;2023-01-10T14:52:18;10.40;99.90
18894;DHT22;9579;49.488;8.226;2023-01-10T15:00:24;11.00;99.90
18894;DHT22;9579;49.488;8.226;2023-01-10T15:05:57;11.20;99.90
18894;DHT22;9579;49.488;8.226;2023-01-10T15:11:25;11.00;99.90
